Time;durP1;ratioP1;P1;durP2;ratioP2;P2;SDS_P1;SDS_P2;PMS_P1;PMS_P2;Temp;Humidity;BMP_temperature;BMP_pressure;BME280_temperature;BME280_humidity;BME280_pressure;Samples;Min_cycle;Max_cycle;Signal;HPM_P1;HPM_P2
2022/11/06 00:00:14;;;;;;;14.03;6.27;;;;;;;16.20;100.00;101248.78;4990718;28;19937;-50
2022/11/06 00:02:39;;;;;;;15.82;5.80;;;;;;;15.57;100.00;101265.84;4992126;28;20069;-55
2022/11/06 00:07:50;;;;;;;14.77;6.10;;;;;;;15.24;100.00;101254.28;4992715;28;20034;-48
2022/11/06 00:10:16;;;;;;;17.53;6.83;;;;;;;15.83;100.00;101255.94;4993183;28;20352;-53
2022/11/06 00:12:42;;;;;;;12.75;6.35;;;;;;;14.93;100.00;101252.38;4993446;28;20058;-53
2022/11/06 00:15:08;;;;;;;11.15;5.30;;;;;;;16.04;100.00;101252.88;4991547;28;20045;-55
2022/11/06 00:17:33;;;;;;;15.35;6.22;;;;;;;15.31;100.00;101244.28;4993400;28;20034;-55
2022/11/06 00:19:59;;;;;;;17.77;5.75;;;;;;;15.02;100.00;101284.22;4991503;28;20046;-54
2022/11/06 00:22:24;;;;;;;17.40;6.45;;;;;;;15.56;100.00;101275.84;4992982;28;20038;-53
2022/11/06 00:24:50;;;;;;;15.90;5.83;;;;;;;14.46;100.00;101248.75;4989185;28;20045;-53
2022/11/06 00:27:16;;;;;;;14.25;5.38;;;;;;;14.80;100.00;101248.69;4991617;28;20314;-53
2022/11/06 00:29:42;;;;;;;15.57;6.57;;;;;;;15.36;100.00;101251.72;4991396;28;20027;-54
2022/11/06 00:32:07;;;;;;;14.97;6.83;;;;;;;15.70;100.00;101246.09;4989575;28;20440;-55
2022/11/06 00:34:34;;;;;;;15.95;5.50;;;;;;;15.93;100.00;101233.91;4988330;28;20034;-55
2022/11/06 00:36:59;;;;;;;15.33;6.37;;;;;;;15.20;100.00;101226.94;4983424;28;20047;-56
2022/11/06 00:39:24;;;;;;;18.43;7.87;;;;;;;15.44;100.00;101240.66;4990709;28;20292;-55
2022/11/06 00:41:50;;;;;;;14.35;6.43;;;;;;;15.46;100.00;101248.56;4990076;28;20027;-52
2022/11/06 00:44:15;;;;;;;14.80;6.27;;;;;;;15.51;100.00;101258.66;4992068;28;20039;-51
2022/11/06 00:46:41;;;;;;;13.05;5.47;;;;;;;15.58;100.00;101249.47;4986214;28;20031;-51
2022/11/06 00:49:06;;;;;;;15.83;6.93;;;;;;;15.49;100.00;101257.00;4990347;28;20055;-55
2022/11/06 00:51:35;;;;;;;20.63;6.22;;;;;;;15.89;100.00;101242.41;4990008;28;20310;-53
2022/11/06 00:54:03;;;;;;;15.63;5.83;;;;;;;15.44;100.00;101237.13;4990843;28;20413;-55
2022/11/06 00:56:30;;;;;;;15.07;6.00;;;;;;;15.26;100.00;101236.03;4983648;28;20308;-53
2022/11/06 00:58:58;;;;;;;16.50;6.13;;;;;;;15.36;100.00;101223.94;4989259;28;20287;-54
2022/11/06 01:01:26;;;;;;;14.07;5.53;;;;;;;15.18;100.00;101223.63;4985877;28;20039;-52
2022/11/06 01:03:55;;;;;;;11.27;5.10;;;;;;;15.26;100.00;101219.03;4992290;28;20363;-49
2022/11/06 01:06:23;;;;;;;15.00;5.60;;;;;;;16.18;100.00;101226.59;4985919;28;20292;-50
2022/11/06 01:08:49;;;;;;;11.03;4.97;;;;;;;15.24;100.00;101216.56;4990175;28;20265;-51
2022/11/06 01:11:19;;;;;;;15.32;6.25;;;;;;;15.83;100.00;101213.59;4985577;28;20288;-55
2022/11/06 01:13:47;;;;;;;13.63;5.33;;;;;;;14.97;100.00;101223.97;4991306;28;20034;-50
2022/11/06 01:16:14;;;;;;;18.93;5.80;;;;;;;15.45;100.00;101217.22;4972336;28;20284;-52
2022/11/06 01:18:42;;;;;;;12.73;5.73;;;;;;;16.18;100.00;101210.41;4986476;28;20299;-51
2022/11/06 01:21:11;;;;;;;12.97;4.50;;;;;;;15.04;100.00;101222.91;4986570;28;20269;-49
2022/11/06 01:23:37;;;;;;;13.80;5.87;;;;;;;15.00;100.00;101205.53;4990428;28;20280;-50
2022/11/06 01:26:04;;;;;;;26.23;6.07;;;;;;;14.62;100.00;101215.16;4988676;28;20272;-54
2022/11/06 01:28:30;;;;;;;23.10;6.40;;;;;;;14.93;100.00;101207.41;4985962;28;20280;-50
2022/11/06 01:31:02;;;;;;;12.25;5.18;;;;;;;15.02;100.00;101219.59;4986141;28;20271;-49
2022/11/06 01:33:27;;;;;;;15.03;4.60;;;;;;;15.40;100.00;101196.34;4989521;28;20035;-50
2022/11/06 01:35:53;;;;;;;10.97;4.33;;;;;;;14.71;100.00;101204.22;4985419;28;20288;-49
2022/11/06 01:38:18;;;;;;;13.50;4.10;;;;;;;15.46;100.00;101218.91;4989686;28;20035;-49
2022/11/06 01:40:46;;;;;;;14.87;5.50;;;;;;;14.62;100.00;101195.53;4983632;28;20038;-54
2022/11/06 01:43:20;;;;;;;21.70;5.93;;;;;;;14.65;100.00;101205.84;4985303;28;20273;-52
2022/11/06 01:45:51;;;;;;;19.87;4.67;;;;;;;14.97;100.00;101207.81;4987783;28;20314;-47
2022/11/06 01:48:24;;;;;;;16.70;5.00;;;;;;;14.89;100.00;101208.88;4986674;28;20268;-48
2022/11/06 01:50:55;;;;;;;11.03;4.37;;;;;;;14.58;100.00;101207.75;4986922;28;20284;-50
2022/11/06 01:53:22;;;;;;;9.63;4.27;;;;;;;14.49;100.00;101207.16;4987548;28;20280;-50
2022/11/06 01:55:52;;;;;;;9.73;4.50;;;;;;;14.71;100.00;101191.56;4989724;28;20272;-51
2022/11/06 01:58:20;;;;;;;11.93;4.20;;;;;;;14.82;100.00;101200.81;4988761;28;20284;-53
2022/11/06 02:00:47;;;;;;;11.03;4.40;;;;;;;14.81;100.00;101193.00;4987061;28;20307;-52
2022/11/06 02:03:13;;;;;;;13.57;4.23;;;;;;;14.69;100.00;101187.41;4991566;28;20276;-50
2022/11/06 02:05:40;;;;;;;7.03;3.97;;;;;;;14.86;100.00;101190.47;4983749;28;20273;-51
2022/11/06 02:08:09;;;;;;;12.40;4.33;;;;;;;14.58;100.00;101183.53;4970214;28;20094;-51
2022/11/06 02:10:35;;;;;;;12.40;4.43;;;;;;;14.73;100.00;101178.72;4988294;28;20344;-53
2022/11/06 02:13:11;;;;;;;15.10;4.43;;;;;;;14.55;100.00;101183.97;4986754;28;20284;-52
2022/11/06 02:16:13;;;;;;;15.38;4.05;;;;;;;14.67;100.00;101176.03;4983032;28;20035;-49
2022/11/06 02:19:16;;;;;;;13.93;4.17;;;;;;;14.57;100.00;101192.66;4990300;28;20091;-52
2022/11/06 02:22:00;;;;;;;10.73;4.40;;;;;;;14.89;100.00;101171.19;4990641;28;20273;-52
2022/11/06 02:24:48;;;;;;;12.93;3.97;;;;;;;14.87;100.00;101179.47;4992944;28;20290;-50
2022/11/06 02:27:17;;;;;;;16.83;4.53;;;;;;;14.69;100.00;101174.78;4993286;28;20336;-52
2022/11/06 02:30:01;;;;;;;13.73;3.80;;;;;;;14.59;100.00;101169.03;4990628;28;20279;-53
2022/11/06 02:32:39;;;;;;;10.63;4.00;;;;;;;14.41;100.00;101158.94;4990913;28;20300;-48
2022/11/06 02:35:19;;;;;;;10.00;4.00;;;;;;;14.44;100.00;101158.56;4985728;28;20280;-52
2022/11/06 02:37:46;;;;;;;11.17;3.40;;;;;;;14.73;100.00;101140.22;4988228;28;20276;-49
2022/11/06 02:40:14;;;;;;;10.03;3.63;;;;;;;14.93;100.00;101153.53;4988267;28;20288;-52
2022/11/06 02:42:44;;;;;;;16.00;3.90;;;;;;;15.33;100.00;101147.88;4993013;28;20336;-50
2022/11/06 02:45:13;;;;;;;12.10;3.53;;;;;;;15.03;100.00;101145.84;4991626;28;20276;-50
2022/11/06 02:47:40;;;;;;;19.00;4.03;;;;;;;15.05;100.00;101141.03;4992361;28;20280;-52
2022/11/06 02:50:11;;;;;;;15.97;4.10;;;;;;;14.95;100.00;101150.66;4990589;28;20302;-54
2022/11/06 02:52:46;;;;;;;19.00;3.40;;;;;;;14.91;100.00;101163.72;4986444;28;20280;-50
2022/11/06 02:55:39;;;;;;;10.80;3.90;;;;;;;14.99;100.00;101147.31;4991300;28;20276;-54
2022/11/06 02:58:11;;;;;;;9.93;3.90;;;;;;;15.14;100.00;101135.38;4987879;28;20285;-51
2022/11/06 03:00:40;;;;;;;13.13;3.57;;;;;;;15.31;100.00;101152.66;4995409;28;20272;-53
2022/11/06 03:03:19;;;;;;;11.47;3.47;;;;;;;14.82;100.00;101163.13;4983516;28;20265;-52
2022/11/06 03:05:53;;;;;;;13.87;3.30;;;;;;;14.99;100.00;101163.47;4989885;28;20289;-53
2022/11/06 03:08:40;;;;;;;10.67;3.37;;;;;;;14.64;100.00;101142.28;4999213;28;20319;-51
2022/11/06 03:11:29;;;;;;;13.63;3.05;;;;;;;14.89;100.00;101138.88;4986168;28;20273;-48
2022/11/06 03:14:18;;;;;;;15.97;3.63;;;;;;;14.67;100.00;101149.94;4992924;28;20043;-52
2022/11/06 03:16:58;;;;;;;9.23;3.40;;;;;;;15.60;100.00;101153.03;4989746;28;20288;-51
2022/11/06 03:19:33;;;;;;;30.63;3.63;;;;;;;14.64;100.00;101147.69;4982346;28;20273;-51
2022/11/06 03:22:13;;;;;;;16.40;3.80;;;;;;;15.01;100.00;101134.44;4987901;28;20265;-54
2022/11/06 03:25:07;;;;;;;9.87;2.80;;;;;;;14.21;100.00;101151.81;4981817;28;20302;-54
2022/11/06 03:27:41;;;;;;;13.70;3.20;;;;;;;14.44;100.00;101148.59;4986000;28;20296;-48
2022/11/06 03:30:09;;;;;;;14.37;3.23;;;;;;;14.73;100.00;101148.28;4986331;28;20272;-52
2022/11/06 03:32:43;;;;;;;17.97;3.77;;;;;;;14.56;100.00;101150.63;4988123;28;20309;-49
2022/11/06 03:35:16;;;;;;;14.47;3.60;;;;;;;14.57;100.00;101131.56;4983470;28;20304;-48
2022/11/06 03:37:47;;;;;;;10.47;3.10;;;;;;;14.69;100.00;101130.91;4987666;28;20277;-48
2022/11/06 03:40:18;;;;;;;10.50;3.10;;;;;;;15.00;100.00;101135.50;4991644;28;20280;-51
2022/11/06 03:42:46;;;;;;;9.83;3.20;;;;;;;14.52;100.00;101138.63;4993374;28;20286;-49
2022/11/06 03:45:21;;;;;;;11.27;3.40;;;;;;;14.58;100.00;101127.81;4986783;28;20360;-50
2022/11/06 03:48:10;;;;;;;13.50;3.80;;;;;;;15.03;100.00;101104.59;4982585;28;20273;-49
2022/11/06 03:50:43;;;;;;;10.33;2.87;;;;;;;14.72;100.00;101117.84;4990117;28;20273;-50
2022/11/06 03:53:30;;;;;;;13.07;3.30;;;;;;;14.64;100.00;101107.31;4993820;28;20287;-50
2022/11/06 03:56:11;;;;;;;14.07;2.92;;;;;;;14.36;100.00;101103.09;4989575;28;20272;-50
2022/11/06 03:58:39;;;;;;;13.00;3.17;;;;;;;14.38;100.00;101106.41;4987395;28;20050;-50
2022/11/06 04:01:11;;;;;;;7.67;3.17;;;;;;;14.36;100.00;101095.03;4987567;28;20280;-54
2022/11/06 04:03:50;;;;;;;17.40;4.03;;;;;;;14.48;100.00;101090.63;4990320;28;20318;-48
2022/11/06 04:06:22;;;;;;;13.50;3.03;;;;;;;14.36;100.00;101092.34;4972956;28;20288;-48
2022/11/06 04:14:29;;;;;;;10.47;2.83;;;;;;;14.66;100.00;101086.38;4984913;28;20280;-52
2022/11/06 04:16:58;;;;;;;9.43;2.83;;;;;;;14.53;100.00;101102.59;4989095;28;20309;-50
2022/11/06 04:19:24;;;;;;;10.27;3.80;;;;;;;14.44;100.00;101094.78;4992158;28;20272;-50
2022/11/06 04:22:07;;;;;;;12.30;3.50;;;;;;;14.51;100.00;101083.16;4992014;28;20306;-53
2022/11/06 04:28:07;;;;;;;9.33;2.90;;;;;;;14.53;100.00;101071.13;4988884;28;20272;-50
2022/11/06 04:31:04;;;;;;;9.37;2.57;;;;;;;14.51;100.00;101062.47;4993115;28;20273;-53
2022/11/06 04:33:54;;;;;;;17.80;3.63;;;;;;;14.67;100.00;101063.00;4982532;28;20324;-48
2022/11/06 04:36:45;;;;;;;11.37;3.03;;;;;;;14.77;100.00;101061.50;4992719;28;20295;-49
2022/11/06 04:39:13;;;;;;;8.40;2.80;;;;;;;14.54;100.00;101061.22;4985744;28;20284;-51
2022/11/06 04:41:47;;;;;;;11.50;3.23;;;;;;;14.89;100.00;101055.41;4989361;28;20273;-49
2022/11/06 04:44:20;;;;;;;8.73;2.53;;;;;;;14.69;100.00;101052.84;4990314;28;20285;-49
2022/11/06 04:47:08;;;;;;;11.47;3.07;;;;;;;15.18;100.00;101056.63;4990851;28;20272;-50
2022/11/06 04:49:36;;;;;;;8.33;3.03;;;;;;;14.96;100.00;101048.09;4990713;28;20316;-50
2022/11/06 04:52:05;;;;;;;9.23;3.73;;;;;;;14.94;100.00;101044.78;4986331;28;20280;-52
2022/11/06 04:54:31;;;;;;;12.20;3.33;;;;;;;15.54;100.00;101056.06;4990436;28;20284;-52
2022/11/06 04:56:59;;;;;;;15.47;3.63;;;;;;;15.31;100.00;101044.88;4987613;28;20283;-54
2022/11/06 04:59:25;;;;;;;13.70;3.80;;;;;;;15.24;100.00;101057.59;4992599;28;20268;-52
2022/11/06 05:01:51;;;;;;;14.68;2.97;;;;;;;15.11;100.00;101045.09;4992532;28;20269;-52
2022/11/06 05:04:17;;;;;;;11.88;3.30;;;;;;;15.07;100.00;101043.84;4992572;28;20046;-48
2022/11/06 05:06:43;;;;;;;18.33;3.38;;;;;;;14.83;100.00;101042.81;4986448;28;20047;-53
2022/11/06 05:09:09;;;;;;;14.03;3.30;;;;;;;14.90;100.00;101047.13;4987906;28;20042;-50
2022/11/06 05:11:34;;;;;;;16.48;4.13;;;;;;;14.48;100.00;101047.56;4992130;28;20054;-52
2022/11/06 05:14:00;;;;;;;6.63;3.00;;;;;;;14.85;100.00;101043.41;4992450;28;20106;-51
2022/11/06 05:16:25;;;;;;;12.03;3.00;;;;;;;14.85;100.00;101041.53;4989887;28;20281;-50
2022/11/06 05:18:51;;;;;;;10.93;3.30;;;;;;;15.03;100.00;101046.19;4991293;28;20264;-51
2022/11/06 05:24:00;;;;;;;11.07;2.83;;;;;;;14.89;100.00;101039.25;4983520;28;20047;-52
2022/11/06 05:26:25;;;;;;;7.27;3.20;;;;;;;14.85;100.00;101043.41;4987738;28;20345;-49
2022/11/06 05:28:51;;;;;;;10.93;3.87;;;;;;;15.30;100.00;101034.31;4987566;28;20038;-52
2022/11/06 05:31:16;;;;;;;14.05;4.07;;;;;;;14.88;100.00;101032.22;4989705;28;20042;-49
2022/11/06 05:33:42;;;;;;;16.33;3.17;;;;;;;15.31;100.00;101038.66;4991500;28;20068;-49
2022/11/06 05:36:08;;;;;;;7.90;2.92;;;;;;;15.28;100.00;101028.34;4987382;28;20046;-52
2022/11/06 05:38:33;;;;;;;12.77;3.33;;;;;;;15.19;100.00;101038.56;4989748;28;20035;-51
2022/11/06 05:40:59;;;;;;;10.73;3.28;;;;;;;15.43;100.00;101031.50;4987020;28;20041;-49
2022/11/06 05:43:24;;;;;;;11.27;3.77;;;;;;;15.49;100.00;101025.22;4987017;28;20037;-52
2022/11/06 05:45:50;;;;;;;11.53;3.50;;;;;;;15.24;100.00;101021.75;4991442;28;20287;-54
2022/11/06 05:48:15;;;;;;;17.23;3.80;;;;;;;15.17;100.00;101016.41;4991861;28;20030;-53
2022/11/06 05:50:41;;;;;;;10.98;3.03;;;;;;;14.85;100.00;101021.88;4988843;28;20113;-52
2022/11/06 05:53:14;;;;;;;11.27;3.30;;;;;;;15.18;100.00;101018.91;4983887;28;20050;-54
2022/11/06 05:55:39;;;;;;;10.63;2.88;;;;;;;15.05;100.00;101009.06;4991194;28;20280;-54
2022/11/06 05:58:05;;;;;;;11.82;2.72;;;;;;;15.27;100.00;101013.22;4991879;28;20038;-52
2022/11/06 06:00:30;;;;;;;15.10;3.25;;;;;;;15.23;100.00;101003.94;4991744;28;20030;-53
2022/11/06 06:02:55;;;;;;;15.73;3.30;;;;;;;15.44;100.00;101008.06;4986890;28;20078;-53
2022/11/06 06:05:21;;;;;;;16.53;3.60;;;;;;;15.17;100.00;101006.47;4989441;28;20058;-51
2022/11/06 06:07:47;;;;;;;8.55;2.92;;;;;;;15.06;100.00;100999.09;4991753;28;20041;-52
2022/11/06 06:10:12;;;;;;;10.00;2.63;;;;;;;15.24;100.00;101005.59;4989035;28;20035;-50
2022/11/06 06:12:38;;;;;;;17.77;4.10;;;;;;;15.19;100.00;100987.38;4992691;28;20349;-50
2022/11/06 06:15:06;;;;;;;9.83;3.30;;;;;;;15.56;100.00;101003.59;4984462;28;20145;-54
2022/11/06 06:17:31;;;;;;;10.93;3.47;;;;;;;15.29;100.00;100997.66;4984533;28;20040;-52
2022/11/06 06:19:57;;;;;;;13.32;3.25;;;;;;;15.59;100.00;100986.16;4988881;28;20301;-55
2022/11/06 06:22:23;;;;;;;10.20;4.07;;;;;;;15.28;100.00;100988.75;4986560;28;20038;-53
2022/11/06 06:24:49;;;;;;;15.60;3.67;;;;;;;15.91;100.00;100985.97;4988946;28;20031;-53
2022/11/06 06:27:14;;;;;;;6.35;3.03;;;;;;;15.73;100.00;100989.50;4991505;28;20058;-51
2022/11/06 06:29:40;;;;;;;13.88;3.17;;;;;;;15.29;100.00;100978.78;4984702;28;20039;-53
2022/11/06 06:32:05;;;;;;;11.20;3.90;;;;;;;15.14;100.00;100980.00;4983068;28;20061;-54
2022/11/06 06:34:31;;;;;;;16.33;3.17;;;;;;;14.78;100.00;100976.16;4989552;28;20042;-53
2022/11/06 06:36:56;;;;;;;14.05;3.28;;;;;;;14.81;100.00;100978.41;4984624;28;20043;-54
2022/11/06 06:39:22;;;;;;;14.10;3.33;;;;;;;15.25;100.00;100970.34;4991470;28;20106;-53
2022/11/06 06:41:48;;;;;;;7.37;2.93;;;;;;;15.43;100.00;100966.00;4983078;28;20031;-48
2022/11/06 06:44:15;;;;;;;7.97;2.80;;;;;;;14.74;100.00;100967.69;4987658;28;20062;-53
2022/11/06 06:46:40;;;;;;;10.97;3.00;;;;;;;14.72;100.00;100971.66;4983597;28;20273;-53
2022/11/06 06:49:06;;;;;;;8.70;3.13;;;;;;;14.65;100.00;100974.38;4982646;28;20336;-52
2022/11/06 06:51:32;;;;;;;8.32;3.20;;;;;;;14.70;100.00;100957.56;4982716;28;20049;-55
2022/11/06 06:53:57;;;;;;;6.10;2.77;;;;;;;14.58;100.00;100973.63;4980724;28;20039;-51
2022/11/06 06:56:23;;;;;;;8.20;3.10;;;;;;;14.86;100.00;100970.50;4979746;28;20340;-51
2022/11/06 06:58:51;;;;;;;13.33;4.10;;;;;;;15.23;100.00;100972.44;4984627;28;20303;-53
2022/11/06 07:01:17;;;;;;;6.67;2.83;;;;;;;14.80;100.00;100957.91;4985477;28;20034;-50
2022/11/06 07:03:43;;;;;;;15.07;3.43;;;;;;;14.70;100.00;100952.19;4983676;28;20359;-55
2022/11/06 07:06:08;;;;;;;13.90;3.65;;;;;;;15.47;100.00;100951.03;4991789;28;20065;-51
2022/11/06 07:08:34;;;;;;;7.53;2.78;;;;;;;15.05;100.00;100949.81;4994349;28;20037;-50
2022/11/06 07:11:04;;;;;;;13.50;3.07;;;;;;;15.28;100.00;100958.28;4989746;28;20038;-49
2022/11/06 07:13:30;;;;;;;10.27;4.30;;;;;;;16.16;100.00;100958.88;4987746;28;20284;-49
2022/11/06 07:15:55;;;;;;;13.53;3.47;;;;;;;15.14;100.00;100954.91;4986734;28;20296;-51
2022/11/06 07:18:21;;;;;;;11.67;2.90;;;;;;;15.79;100.00;100964.31;4989380;28;20260;-51
2022/11/06 07:20:46;;;;;;;14.13;3.63;;;;;;;15.36;100.00;100959.84;4992029;28;20030;-51
2022/11/06 07:23:12;;;;;;;9.07;2.67;;;;;;;17.65;100.00;100983.34;4991169;28;20058;-52
2022/11/06 07:25:37;;;;;;;12.33;3.10;;;;;;;17.81;100.00;100976.38;4987854;28;20042;-51
2022/11/06 07:28:05;;;;;;;7.10;2.75;;;;;;;16.49;100.00;100976.44;4994069;28;20069;-52
2022/11/06 07:30:31;;;;;;;9.10;2.87;;;;;;;15.80;100.00;100960.56;4991056;28;20054;-51
2022/11/06 07:32:59;;;;;;;9.25;2.60;;;;;;;17.62;100.00;100953.03;4991263;28;20330;-48
2022/11/06 07:35:25;;;;;;;11.83;2.90;;;;;;;18.52;100.00;100961.69;4988740;28;20065;-50
2022/11/06 07:37:51;;;;;;;5.95;2.75;;;;;;;15.62;100.00;100956.84;4993225;28;20288;-50
2022/11/06 07:40:16;;;;;;;5.50;2.33;;;;;;;16.18;100.00;100959.47;4986084;28;20057;-50
2022/11/06 07:42:42;;;;;;;7.63;3.00;;;;;;;17.62;100.00;100958.44;4991121;28;20027;-47
2022/11/06 07:45:08;;;;;;;7.13;2.87;;;;;;;15.72;100.00;100969.00;4990105;28;20031;-51
2022/11/06 07:47:34;;;;;;;;;;;;;;;16.11;100.00;100977.59;4987306;28;20035;-50
2022/11/06 07:49:59;;;;;;;6.57;2.43;;;;;;;16.95;100.00;100988.56;4987828;28;19970;-48
2022/11/06 07:52:25;;;;;;;4.30;2.10;;;;;;;15.56;100.00;100965.00;4989016;28;20039;-49
2022/11/06 07:54:51;;;;;;;5.47;2.63;;;;;;;15.42;100.00;100948.19;4992228;28;20035;-48
2022/11/06 07:57:16;;;;;;;13.60;2.77;;;;;;;17.15;100.00;100945.03;4984269;28;20054;-51
2022/11/06 07:59:42;;;;;;;14.27;3.13;;;;;;;16.24;100.00;100946.91;4989418;28;20042;-49
2022/11/06 08:02:12;;;;;;;10.82;3.20;;;;;;;16.41;100.00;100946.25;4987106;28;20035;-51
2022/11/06 08:04:38;;;;;;;10.10;2.70;;;;;;;15.69;100.00;100940.59;4987600;28;20041;-53
2022/11/06 08:07:04;;;;;;;;;;;;;;;15.98;100.00;100942.75;4987826;28;20302;-52
2022/11/06 08:09:30;;;;;;;14.63;2.43;;;;;;;15.82;100.00;100946.88;4982491;28;19922;-53
2022/11/06 08:11:56;;;;;;;9.97;2.73;;;;;;;16.84;100.00;100947.81;4985901;28;20301;-48
2022/11/06 08:14:21;;;;;;;8.15;2.85;;;;;;;17.25;100.00;100956.03;4988954;28;20061;-49
2022/11/06 08:16:48;;;;;;;5.28;2.70;;;;;;;16.76;100.00;100945.50;4987073;28;20034;-50
2022/11/06 08:19:13;;;;;;;9.13;3.43;;;;;;;15.88;100.00;100935.19;4985278;28;20031;-48
2022/11/06 08:21:39;;;;;;;11.52;3.53;;;;;;;15.47;100.00;100934.88;4984478;28;20039;-53
2022/11/06 08:24:05;;;;;;;9.10;3.53;;;;;;;16.89;100.00;100941.72;4984918;28;20102;-51
2022/11/06 08:26:31;;;;;;;9.65;2.35;;;;;;;15.71;100.00;100926.91;4987148;28;20122;-54
2022/11/06 08:28:56;;;;;;;7.50;3.00;;;;;;;15.87;100.00;100931.63;4988897;28;20035;-50
2022/11/06 08:31:22;;;;;;;10.83;2.77;;;;;;;16.69;100.00;100933.97;4989317;28;20269;-52
2022/11/06 08:33:48;;;;;;;8.85;2.50;;;;;;;15.79;100.00;100926.56;4986803;28;20096;-53
2022/11/06 08:36:14;;;;;;;9.52;2.22;;;;;;;15.99;100.00;100909.31;4988587;28;20102;-52
2022/11/06 08:38:39;;;;;;;6.78;2.38;;;;;;;16.41;100.00;100912.00;4987387;28;20038;-50
2022/11/06 08:41:10;;;;;;;6.93;3.03;;;;;;;17.84;100.00;100905.56;4983163;28;20054;-54
2022/11/06 08:43:36;;;;;;;8.13;1.90;;;;;;;18.10;100.00;100906.88;4986334;28;20112;-52
2022/11/06 08:46:07;;;;;;;9.53;2.20;;;;;;;17.67;100.00;100902.81;4988610;28;20272;-53
2022/11/06 08:48:33;;;;;;;7.23;2.30;;;;;;;18.15;100.00;100917.78;4990562;28;20287;-52
2022/11/06 08:50:59;;;;;;;8.02;2.22;;;;;;;17.41;100.00;100886.91;4989226;28;20346;-51
2022/11/06 08:53:24;;;;;;;8.65;2.08;;;;;;;16.87;100.00;100914.94;4992132;28;20034;-50
2022/11/06 08:55:50;;;;;;;4.93;1.80;;;;;;;16.99;100.00;100897.94;4990942;28;20039;-52
2022/11/06 08:58:16;;;;;;;8.50;2.22;;;;;;;16.88;100.00;100897.69;4991781;28;20046;-50
2022/11/06 09:00:42;;;;;;;7.83;2.13;;;;;;;18.54;100.00;100889.16;4988001;28;20062;-54
2022/11/06 09:03:10;;;;;;;6.00;2.08;;;;;;;18.10;100.00;100881.69;4992090;28;20281;-51
2022/11/06 09:05:39;;;;;;;5.77;2.57;;;;;;;18.92;100.00;100882.13;4992365;28;20068;-52
2022/11/06 09:08:06;;;;;;;5.60;2.13;;;;;;;21.39;100.00;100889.09;4986707;28;20288;-52
2022/11/06 09:10:31;;;;;;;6.32;2.35;;;;;;;20.57;100.00;100877.53;4987393;28;20340;-51
2022/11/06 09:12:58;;;;;;;11.70;2.77;;;;;;;20.87;100.00;100878.00;4990252;28;20042;-51
2022/11/06 09:15:24;;;;;;;4.32;1.48;;;;;;;19.95;100.00;100859.97;4986068;28;20064;-51
2022/11/06 09:17:50;;;;;;;6.68;1.52;;;;;;;19.13;100.00;100858.81;4987731;28;20038;-50
2022/11/06 09:20:18;;;;;;;12.40;1.30;;;;;;;19.51;100.00;100871.72;4983995;28;20069;-49
2022/11/06 09:22:44;;;;;;;7.27;1.80;;;;;;;18.44;100.00;100851.91;4985677;28;20062;-53
2022/11/06 09:25:11;;;;;;;6.10;1.40;;;;;;;18.37;100.00;100843.16;4981248;28;20031;-48
2022/11/06 09:27:47;;;;;;;4.50;1.38;;;;;;;17.89;100.00;100856.97;4985573;28;20058;-54
2022/11/06 09:30:15;;;;;;;5.68;1.65;;;;;;;17.85;100.00;100839.56;4983913;28;20035;-52
2022/11/06 09:32:49;;;;;;;4.97;1.47;;;;;;;17.79;100.00;100838.69;4988020;28;20076;-54
2022/11/06 09:35:15;;;;;;;5.27;1.70;;;;;;;18.42;100.00;100849.44;4987021;28;20276;-53
2022/11/06 09:37:40;;;;;;;7.30;1.40;;;;;;;18.89;100.00;100844.66;4989404;28;20281;-54
2022/11/06 09:40:31;;;;;;;10.05;2.28;;;;;;;18.41;100.00;100850.50;4988184;28;20110;-51
2022/11/06 09:43:18;;;;;;;4.43;1.50;;;;;;;18.49;100.00;100831.16;4984664;28;20575;-52
2022/11/06 09:45:47;;;;;;;6.55;1.83;;;;;;;18.77;100.00;100831.22;4987286;28;20269;-47
2022/11/06 09:48:20;;;;;;;3.40;1.20;;;;;;;18.48;100.00;100851.19;4981145;28;20030;-49
2022/11/06 09:50:54;;;;;;;10.83;2.23;;;;;;;18.32;100.00;100844.69;4988701;28;20281;-47
2022/11/06 09:53:53;;;;;;;4.93;1.30;;;;;;;19.04;100.00;100847.59;4970970;28;20290;-51
2022/11/06 09:56:20;;;;;;;4.38;1.70;;;;;;;17.80;100.00;100843.03;4992410;28;20309;-51
2022/11/06 09:58:47;;;;;;;6.57;1.83;;;;;;;17.02;100.00;100846.94;4987172;28;20102;-51
2022/11/06 10:01:20;;;;;;;5.17;2.00;;;;;;;17.10;100.00;100844.94;4985385;28;20284;-52
2022/11/06 10:03:57;;;;;;;4.27;1.50;;;;;;;17.14;100.00;100843.41;4988036;28;20273;-50
2022/11/06 10:06:24;;;;;;;6.28;1.52;;;;;;;17.05;100.00;100857.28;4983448;28;20276;-53
2022/11/06 10:08:52;;;;;;;7.00;2.05;;;;;;;18.28;100.00;100848.97;4991362;28;20058;-53
2022/11/06 10:11:25;;;;;;;9.97;1.97;;;;;;;18.06;100.00;100843.47;4989242;28;20039;-56
2022/11/06 10:13:54;;;;;;;10.23;1.73;;;;;;;17.27;100.00;100840.41;4986212;28;20297;-54
2022/11/06 10:16:54;;;;;;;5.43;1.70;;;;;;;17.85;100.00;100831.44;4981275;28;20288;-49
2022/11/06 10:19:38;;;;;;;7.30;1.77;;;;;;;18.10;100.00;100828.38;4976706;28;20341;-51
2022/11/06 10:22:13;;;;;;;8.17;2.27;;;;;;;17.79;100.00;100825.16;4989583;28;20253;-47
2022/11/06 10:24:43;;;;;;;9.40;2.00;;;;;;;17.39;100.00;100812.53;4985986;28;20260;-52
2022/11/06 10:27:18;;;;;;;4.90;2.10;;;;;;;17.13;100.00;100818.25;4983873;28;20269;-53
2022/11/06 10:30:14;;;;;;;4.47;2.10;;;;;;;17.57;100.00;100815.03;4982882;28;20260;-51
2022/11/06 10:33:05;;;;;;;6.27;1.43;;;;;;;17.89;100.00;100816.41;4986891;28;20289;-49
2022/11/06 10:35:53;;;;;;;7.47;2.10;;;;;;;17.92;100.00;100815.91;4986767;28;20287;-53
2022/11/06 10:38:26;;;;;;;6.03;2.00;;;;;;;17.96;100.00;100803.53;4988373;28;20286;-55
2022/11/06 10:40:54;;;;;;;11.47;2.10;;;;;;;19.69;100.00;100802.72;4986404;28;20297;-51
2022/11/06 10:43:42;;;;;;;6.80;1.90;;;;;;;19.84;100.00;100802.88;4987542;28;20273;-52
2022/11/06 10:46:21;;;;;;;11.90;2.47;;;;;;;20.11;100.00;100812.88;4991174;28;20269;-52
2022/11/06 10:48:54;;;;;;;5.57;1.43;;;;;;;19.42;100.00;100788.09;4994636;28;20264;-54
2022/11/06 10:51:38;;;;;;;8.07;1.57;;;;;;;19.70;100.00;100793.50;4994621;28;20280;-53
2022/11/06 10:54:20;;;;;;;6.67;2.07;;;;;;;20.67;100.00;100784.41;4988963;28;20299;-53
2022/11/06 10:56:53;;;;;;;9.73;2.67;;;;;;;20.24;100.00;100780.91;4988871;28;20303;-54
2022/11/06 10:59:18;;;;;;;9.47;3.37;;;;;;;20.60;100.00;100778.41;4991849;28;20269;-53
2022/11/06 11:01:44;;;;;;;13.70;4.45;;;;;;;21.56;100.00;100771.88;4994635;28;20307;-54
2022/11/06 11:04:09;;;;;;;7.03;1.58;;;;;;;22.40;100.00;100766.09;4988503;28;20066;-53
2022/11/06 11:06:38;;;;;;;2.22;1.08;;;;;;;22.47;98.75;100774.81;4989594;28;20030;-51
2022/11/06 11:09:24;;;;;;;7.40;1.80;;;;;;;21.43;100.00;100768.59;4993004;28;20093;-53
2022/11/06 11:11:49;;;;;;;5.17;1.70;;;;;;;21.16;100.00;100768.81;4987932;28;20065;-51
2022/11/06 11:14:22;;;;;;;9.47;2.00;;;;;;;21.17;100.00;100756.88;4985866;28;20043;-51
2022/11/06 11:16:48;;;;;;;7.03;1.97;;;;;;;21.14;100.00;100755.53;4991257;28;20041;-48
2022/11/06 11:19:24;;;;;;;4.85;1.95;;;;;;;21.24;100.00;100743.84;4988108;28;20035;-52
2022/11/06 11:22:17;;;;;;;3.78;1.60;;;;;;;21.22;100.00;100737.88;4984111;28;20050;-48
2022/11/06 11:25:04;;;;;;;7.47;1.90;;;;;;;20.82;100.00;100747.53;4992087;28;20031;-51
2022/11/06 11:27:43;;;;;;;8.32;1.92;;;;;;;20.22;100.00;100745.06;4991809;28;20035;-52
2022/11/06 11:30:25;;;;;;;3.50;1.37;;;;;;;19.49;100.00;100749.94;4985483;28;20090;-49
2022/11/06 11:32:52;;;;;;;12.37;2.23;;;;;;;19.83;100.00;100749.66;4990189;28;20061;-52
2022/11/06 11:35:23;;;;;;;6.93;1.50;;;;;;;19.36;100.00;100737.63;4989593;28;20114;-52
2022/11/06 11:37:48;;;;;;;4.83;1.50;;;;;;;18.84;100.00;100728.94;4989277;28;20277;-52
2022/11/06 11:40:34;;;;;;;7.22;1.48;;;;;;;18.63;100.00;100717.03;4991455;28;20043;-50